sensor_id;sensor_type;location;lat;lon;timestamp;pressure;altitude;pressure_sealevel;temperature;humidity
56504;BME280;48812;51.606;-0.114;2023-04-30T00:01:22;101612.50;;;19.35;53.22
56504;BME280;48812;51.606;-0.114;2023-04-30T00:03:55;101607.13;;;19.35;53.57
56504;BME280;48812;51.606;-0.114;2023-04-30T00:06:28;101615.25;;;19.33;54.02
56504;BME280;48812;51.606;-0.114;2023-04-30T00:09:00;101610.81;;;19.32;53.28
56504;BME280;48812;51.606;-0.114;2023-04-30T00:11:32;101604.56;;;19.32;53.60
56504;BME280;48812;51.606;-0.114;2023-04-30T00:14:04;101605.50;;;19.31;53.79
56504;BME280;48812;51.606;-0.114;2023-04-30T00:16:36;101598.41;;;19.30;53.45
56504;BME280;48812;51.606;-0.114;2023-04-30T00:19:09;101597.53;;;19.29;53.86
56504;BME280;48812;51.606;-0.114;2023-04-30T00:21:41;101601.16;;;19.28;53.81
56504;BME280;48812;51.606;-0.114;2023-04-30T00:24:13;101599.41;;;19.27;53.87
56504;BME280;48812;51.606;-0.114;2023-04-30T00:26:45;101610.13;;;19.27;53.66
56504;BME280;48812;51.606;-0.114;2023-04-30T00:29:17;101597.69;;;19.26;53.89
56504;BME280;48812;51.606;-0.114;2023-04-30T00:31:49;101595.06;;;19.25;53.68
56504;BME280;48812;51.606;-0.114;2023-04-30T00:34:22;101600.41;;;19.25;54.06
56504;BME280;48812;51.606;-0.114;2023-04-30T00:36:54;101597.75;;;19.25;53.58
56504;BME280;48812;51.606;-0.114;2023-04-30T00:39:26;101600.47;;;19.23;53.85
56504;BME280;48812;51.606;-0.114;2023-04-30T00:42:00;101596.91;;;19.23;53.44
56504;BME280;48812;51.606;-0.114;2023-04-30T00:44:33;101604.09;;;19.22;53.80
56504;BME280;48812;51.606;-0.114;2023-04-30T00:47:05;101596.09;;;19.21;54.07
56504;BME280;48812;51.606;-0.114;2023-04-30T00:49:37;101598.78;;;19.21;54.11
56504;BME280;48812;51.606;-0.114;2023-04-30T00:52:09;101599.72;;;19.20;53.30
56504;BME280;48812;51.606;-0.114;2023-04-30T00:54:42;101603.34;;;19.19;53.93
56504;BME280;48812;51.606;-0.114;2023-04-30T00:57:14;101599.81;;;19.18;54.24
56504;BME280;48812;51.606;-0.114;2023-04-30T00:59:48;101595.38;;;19.17;53.79
56504;BME280;48812;51.606;-0.114;2023-04-30T01:02:20;101599.88;;;19.16;53.58
56504;BME280;48812;51.606;-0.114;2023-04-30T01:04:53;101599.94;;;19.15;53.73
56504;BME280;48812;51.606;-0.114;2023-04-30T01:07:26;101597.25;;;19.15;53.56
56504;BME280;48812;51.606;-0.114;2023-04-30T01:09:59;101598.16;;;19.14;53.85
56504;BME280;48812;51.606;-0.114;2023-04-30T01:12:46;101591.94;;;19.13;53.92
56504;BME280;48812;51.606;-0.114;2023-04-30T01:15:26;101590.19;;;19.12;53.75
56504;BME280;48812;51.606;-0.114;2023-04-30T01:20:32;101594.75;;;19.10;54.13
56504;BME280;48812;51.606;-0.114;2023-04-30T01:23:17;101593.94;;;19.08;54.01
56504;BME280;48812;51.606;-0.114;2023-04-30T01:26:13;101593.06;;;19.08;53.52
56504;BME280;48812;51.606;-0.114;2023-04-30T01:28:44;101594.88;;;19.07;54.22
56504;BME280;48812;51.606;-0.114;2023-04-30T01:31:17;101595.78;;;19.06;53.61
56504;BME280;48812;51.606;-0.114;2023-04-30T01:33:50;101591.38;;;19.05;53.49
56504;BME280;48812;51.606;-0.114;2023-04-30T01:40:20;101597.72;;;19.03;54.01
56504;BME280;48812;51.606;-0.114;2023-04-30T01:42:31;101602.16;;;19.04;53.95
56504;BME280;48812;51.606;-0.114;2023-04-30T01:50:36;101596.94;;;19.01;54.23
56504;BME280;48812;51.606;-0.114;2023-04-30T01:53:11;101588.94;;;18.99;54.22
56504;BME280;48812;51.606;-0.114;2023-04-30T01:58:24;101590.81;;;18.97;53.84
56504;BME280;48812;51.606;-0.114;2023-04-30T02:00:57;101586.38;;;18.96;53.58
56504;BME280;48812;51.606;-0.114;2023-04-30T02:03:31;101583.69;;;18.96;54.33
56504;BME280;48812;51.606;-0.114;2023-04-30T02:06:03;101581.94;;;18.95;53.47
56504;BME280;48812;51.606;-0.114;2023-04-30T02:08:37;101585.59;;;18.94;53.59
56504;BME280;48812;51.606;-0.114;2023-04-30T02:11:09;101579.38;;;18.93;53.66
56504;BME280;48812;51.606;-0.114;2023-04-30T02:13:41;101582.09;;;18.92;53.64
56504;BME280;48812;51.606;-0.114;2023-04-30T02:16:14;101579.41;;;18.92;54.37
56504;BME280;48812;51.606;-0.114;2023-04-30T02:18:46;101582.09;;;18.92;54.10
56504;BME280;48812;51.606;-0.114;2023-04-30T02:21:18;101590.19;;;18.90;53.49
56504;BME280;48812;51.606;-0.114;2023-04-30T02:23:52;101582.22;;;18.89;54.00
56504;BME280;48812;51.606;-0.114;2023-04-30T02:26:24;101585.81;;;18.88;54.16
56504;BME280;48812;51.606;-0.114;2023-04-30T02:28:57;101580.47;;;18.88;53.63
56504;BME280;48812;51.606;-0.114;2023-04-30T02:31:30;101581.38;;;18.87;54.10
56504;BME280;48812;51.606;-0.114;2023-04-30T02:34:02;101571.63;;;18.86;54.43
56504;BME280;48812;51.606;-0.114;2023-04-30T02:36:35;101575.22;;;18.85;53.93
56504;BME280;48812;51.606;-0.114;2023-04-30T02:39:07;101585.06;;;18.84;54.43
56504;BME280;48812;51.606;-0.114;2023-04-30T02:41:40;101572.59;;;18.83;53.63
56504;BME280;48812;51.606;-0.114;2023-04-30T02:44:12;101570.88;;;18.82;53.82
56504;BME280;48812;51.606;-0.114;2023-04-30T02:46:44;101575.34;;;18.82;54.08
56504;BME280;48812;51.606;-0.114;2023-04-30T02:49:16;101567.34;;;18.80;54.15
56504;BME280;48812;51.606;-0.114;2023-04-30T02:51:48;101567.34;;;18.80;53.80
56504;BME280;48812;51.606;-0.114;2023-04-30T02:54:21;101565.63;;;18.79;53.97
56504;BME280;48812;51.606;-0.114;2023-04-30T02:56:53;101564.75;;;18.78;53.58
56504;BME280;48812;51.606;-0.114;2023-04-30T02:59:26;101568.38;;;18.77;53.74
56504;BME280;48812;51.606;-0.114;2023-04-30T03:02:00;101569.28;;;18.76;53.99
56504;BME280;48812;51.606;-0.114;2023-04-30T03:04:32;101565.81;;;18.74;54.06
56504;BME280;48812;51.606;-0.114;2023-04-30T03:07:04;101563.13;;;18.74;53.56
56504;BME280;48812;51.606;-0.114;2023-04-30T03:09:38;101561.38;;;18.73;54.20
56504;BME280;48812;51.606;-0.114;2023-04-30T03:12:11;101565.88;;;18.73;54.01
56504;BME280;48812;51.606;-0.114;2023-04-30T03:14:43;101564.13;;;18.72;54.25
56504;BME280;48812;51.606;-0.114;2023-04-30T03:17:15;101565.00;;;18.72;54.22
56504;BME280;48812;51.606;-0.114;2023-04-30T03:19:49;101569.53;;;18.70;54.31
56504;BME280;48812;51.606;-0.114;2023-04-30T03:22:21;101566.00;;;18.70;54.18
56504;BME280;48812;51.606;-0.114;2023-04-30T03:24:54;101564.25;;;18.69;54.77
56504;BME280;48812;51.606;-0.114;2023-04-30T03:27:27;101558.97;;;18.67;54.20
56504;BME280;48812;51.606;-0.114;2023-04-30T03:29:59;101566.09;;;18.67;54.34
56504;BME280;48812;51.606;-0.114;2023-04-30T03:32:31;101565.25;;;18.66;54.12
56504;BME280;48812;51.606;-0.114;2023-04-30T03:35:03;101563.50;;;18.65;54.12
56504;BME280;48812;51.606;-0.114;2023-04-30T03:37:36;101569.78;;;18.64;53.56
56504;BME280;48812;51.606;-0.114;2023-04-30T03:40:08;101570.72;;;18.63;53.92
56504;BME280;48812;51.606;-0.114;2023-04-30T03:42:41;101563.59;;;18.62;53.99
56504;BME280;48812;51.606;-0.114;2023-04-30T03:45:13;101558.25;;;18.62;54.27
56504;BME280;48812;51.606;-0.114;2023-04-30T03:47:45;101567.22;;;18.61;54.30
56504;BME280;48812;51.606;-0.114;2023-04-30T03:50:18;101564.63;;;18.59;54.01
56504;BME280;48812;51.606;-0.114;2023-04-30T03:52:51;101563.75;;;18.59;54.56
56504;BME280;48812;51.606;-0.114;2023-04-30T03:55:23;101559.31;;;18.58;54.14
56504;BME280;48812;51.606;-0.114;2023-04-30T03:57:55;101559.38;;;18.56;54.07
56504;BME280;48812;51.606;-0.114;2023-04-30T04:00:29;101561.19;;;18.56;53.73
56504;BME280;48812;51.606;-0.114;2023-04-30T04:03:02;101558.50;;;18.56;54.58
56504;BME280;48812;51.606;-0.114;2023-04-30T04:05:36;101557.66;;;18.54;54.26
56504;BME280;48812;51.606;-0.114;2023-04-30T04:08:08;101555.00;;;18.54;54.48
56504;BME280;48812;51.606;-0.114;2023-04-30T04:10:41;101561.31;;;18.53;54.48
56504;BME280;48812;51.606;-0.114;2023-04-30T04:13:14;101555.16;;;18.51;54.03
56504;BME280;48812;51.606;-0.114;2023-04-30T04:15:46;101564.09;;;18.50;53.78
56504;BME280;48812;51.606;-0.114;2023-04-30T04:18:19;101559.59;;;18.50;54.41
56504;BME280;48812;51.606;-0.114;2023-04-30T04:20:51;101556.97;;;18.49;54.54
56504;BME280;48812;51.606;-0.114;2023-04-30T04:23:24;101562.34;;;18.49;54.22
56504;BME280;48812;51.606;-0.114;2023-04-30T04:25:56;101559.72;;;18.47;54.91
56504;BME280;48812;51.606;-0.114;2023-04-30T04:28:28;101553.50;;;18.47;54.59
56504;BME280;48812;51.606;-0.114;2023-04-30T04:31:01;101563.34;;;18.46;54.35
56504;BME280;48812;51.606;-0.114;2023-04-30T04:33:34;101560.72;;;18.45;54.54
56504;BME280;48812;51.606;-0.114;2023-04-30T04:36:08;101551.88;;;18.42;54.35
56504;BME280;48812;51.606;-0.114;2023-04-30T04:38:40;101559.03;;;18.42;54.24
56504;BME280;48812;51.606;-0.114;2023-04-30T04:41:13;101560.84;;;18.41;55.05
56504;BME280;48812;51.606;-0.114;2023-04-30T04:43:45;101565.34;;;18.41;54.93
56504;BME280;48812;51.606;-0.114;2023-04-30T04:46:17;101562.72;;;18.39;54.76
56504;BME280;48812;51.606;-0.114;2023-04-30T04:48:49;101561.81;;;18.39;54.98
56504;BME280;48812;51.606;-0.114;2023-04-30T04:51:22;101549.38;;;18.38;54.19
56504;BME280;48812;51.606;-0.114;2023-04-30T04:53:54;101555.59;;;18.38;53.85
56504;BME280;48812;51.606;-0.114;2023-04-30T04:56:27;101554.78;;;18.36;54.58
56504;BME280;48812;51.606;-0.114;2023-04-30T04:58:59;101551.25;;;18.36;54.52
56504;BME280;48812;51.606;-0.114;2023-04-30T05:01:32;101555.72;;;18.35;54.75
56504;BME280;48812;51.606;-0.114;2023-04-30T05:04:04;101559.31;;;18.34;54.26
56504;BME280;48812;51.606;-0.114;2023-04-30T05:06:36;101558.41;;;18.34;55.06
56504;BME280;48812;51.606;-0.114;2023-04-30T05:09:09;101552.19;;;18.33;54.65
56504;BME280;48812;51.606;-0.114;2023-04-30T05:11:41;101545.97;;;18.33;53.82
56504;BME280;48812;51.606;-0.114;2023-04-30T05:14:14;101555.78;;;18.32;54.87
56504;BME280;48812;51.606;-0.114;2023-04-30T05:16:48;101559.44;;;18.31;55.10
56504;BME280;48812;51.606;-0.114;2023-04-30T05:19:20;101554.06;;;18.31;54.47
56504;BME280;48812;51.606;-0.114;2023-04-30T05:21:53;101553.19;;;18.31;54.56
56504;BME280;48812;51.606;-0.114;2023-04-30T05:24:25;101560.34;;;18.30;54.56
56504;BME280;48812;51.606;-0.114;2023-04-30T05:26:57;101556.81;;;18.30;54.65
56504;BME280;48812;51.606;-0.114;2023-04-30T05:29:29;101550.56;;;18.29;54.36
56504;BME280;48812;51.606;-0.114;2023-04-30T05:32:03;101549.69;;;18.29;54.19
56504;BME280;48812;51.606;-0.114;2023-04-30T05:34:35;101555.91;;;18.29;54.69
56504;BME280;48812;51.606;-0.114;2023-04-30T05:37:07;101558.69;;;18.28;54.35
56504;BME280;48812;51.606;-0.114;2023-04-30T05:39:41;101553.31;;;18.28;53.94
56504;BME280;48812;51.606;-0.114;2023-04-30T05:42:13;101557.78;;;18.27;55.01
56504;BME280;48812;51.606;-0.114;2023-04-30T05:44:47;101557.78;;;18.27;54.71
56504;BME280;48812;51.606;-0.114;2023-04-30T05:47:20;101557.78;;;18.27;54.97
56504;BME280;48812;51.606;-0.114;2023-04-30T05:49:52;101561.41;;;18.26;54.76
56504;BME280;48812;51.606;-0.114;2023-04-30T05:52:25;101557.84;;;18.25;54.57
56504;BME280;48812;51.606;-0.114;2023-04-30T05:54:57;101556.91;;;18.27;54.22
56504;BME280;48812;51.606;-0.114;2023-04-30T05:57:29;101558.78;;;18.24;54.69
56504;BME280;48812;51.606;-0.114;2023-04-30T06:00:01;101564.13;;;18.24;54.78
56504;BME280;48812;51.606;-0.114;2023-04-30T06:02:42;101565.00;;;18.25;54.40
56504;BME280;48812;51.606;-0.114;2023-04-30T06:05:15;101557.88;;;18.24;54.71
56504;BME280;48812;51.606;-0.114;2023-04-30T06:07:47;101563.25;;;18.24;54.64
56504;BME280;48812;51.606;-0.114;2023-04-30T06:10:19;101563.25;;;18.24;54.40
56504;BME280;48812;51.606;-0.114;2023-04-30T06:12:52;101563.25;;;18.24;54.09
56504;BME280;48812;51.606;-0.114;2023-04-30T06:15:24;101569.50;;;18.24;54.62
56504;BME280;48812;51.606;-0.114;2023-04-30T06:17:56;101567.72;;;18.23;53.88
56504;BME280;48812;51.606;-0.114;2023-04-30T06:20:29;101556.16;;;18.23;54.38
56504;BME280;48812;51.606;-0.114;2023-04-30T06:23:01;101566.88;;;18.23;54.27
56504;BME280;48812;51.606;-0.114;2023-04-30T06:25:34;101563.25;;;18.24;54.69
56504;BME280;48812;51.606;-0.114;2023-04-30T06:28:07;101562.38;;;18.23;54.43
56504;BME280;48812;51.606;-0.114;2023-04-30T06:30:40;101563.31;;;18.22;54.82
56504;BME280;48812;51.606;-0.114;2023-04-30T06:33:12;101568.66;;;18.22;54.39
56504;BME280;48812;51.606;-0.114;2023-04-30T06:35:45;101567.78;;;18.22;54.71
56504;BME280;48812;51.606;-0.114;2023-04-30T06:38:17;101565.13;;;18.22;54.86
56504;BME280;48812;51.606;-0.114;2023-04-30T06:40:50;101565.97;;;18.22;54.49
56504;BME280;48812;51.606;-0.114;2023-04-30T06:43:22;101567.78;;;18.22;54.75
56504;BME280;48812;51.606;-0.114;2023-04-30T06:45:55;101567.78;;;18.22;54.73
56504;BME280;48812;51.606;-0.114;2023-04-30T06:48:27;101575.81;;;18.22;54.76
56504;BME280;48812;51.606;-0.114;2023-04-30T06:50:59;101568.72;;;18.21;54.84
56504;BME280;48812;51.606;-0.114;2023-04-30T06:53:31;101567.78;;;18.22;54.28
56504;BME280;48812;51.606;-0.114;2023-04-30T06:56:03;101572.28;;;18.21;54.87
56504;BME280;48812;51.606;-0.114;2023-04-30T06:58:36;101574.06;;;18.21;55.03
56504;BME280;48812;51.606;-0.114;2023-04-30T07:01:08;101575.81;;;18.22;54.65
56504;BME280;48812;51.606;-0.114;2023-04-30T07:03:40;101575.81;;;18.22;54.64
56504;BME280;48812;51.606;-0.114;2023-04-30T07:06:12;101578.50;;;18.22;54.86
56504;BME280;48812;51.606;-0.114;2023-04-30T07:08:45;101575.75;;;18.23;54.73
56504;BME280;48812;51.606;-0.114;2023-04-30T07:11:17;101575.75;;;18.23;54.86
56504;BME280;48812;51.606;-0.114;2023-04-30T07:13:49;101573.09;;;18.23;54.83
56504;BME280;48812;51.606;-0.114;2023-04-30T07:16:23;101566.81;;;18.24;54.89
56504;BME280;48812;51.606;-0.114;2023-04-30T07:18:56;101563.25;;;18.24;55.09
56504;BME280;48812;51.606;-0.114;2023-04-30T07:21:28;101568.59;;;18.24;54.77
56504;BME280;48812;51.606;-0.114;2023-04-30T07:24:00;101570.34;;;18.25;54.86
56504;BME280;48812;51.606;-0.114;2023-04-30T07:26:32;101570.34;;;18.25;54.77
56504;BME280;48812;51.606;-0.114;2023-04-30T07:29:04;101563.19;;;18.25;54.65
56504;BME280;48812;51.606;-0.114;2023-04-30T07:31:37;101569.44;;;18.26;54.83
56504;BME280;48812;51.606;-0.114;2023-04-30T07:34:09;101564.09;;;18.26;55.39
56504;BME280;48812;51.606;-0.114;2023-04-30T07:36:41;101568.47;;;18.27;54.83
56504;BME280;48812;51.606;-0.114;2023-04-30T07:39:13;101565.81;;;18.27;54.59
56504;BME280;48812;51.606;-0.114;2023-04-30T07:41:48;101563.13;;;18.27;54.81
56504;BME280;48812;51.606;-0.114;2023-04-30T07:44:20;101562.22;;;18.28;55.37
56504;BME280;48812;51.606;-0.114;2023-04-30T07:46:53;101559.53;;;18.28;54.63
56504;BME280;48812;51.606;-0.114;2023-04-30T07:49:25;101556.81;;;18.30;55.02
56504;BME280;48812;51.606;-0.114;2023-04-30T07:51:57;101560.41;;;18.29;54.63
56504;BME280;48812;51.606;-0.114;2023-04-30T07:54:30;101555.91;;;18.29;55.04
56504;BME280;48812;51.606;-0.114;2023-04-30T07:57:02;101560.34;;;18.30;54.91
56504;BME280;48812;51.606;-0.114;2023-04-30T07:59:34;101557.66;;;18.30;55.35
56504;BME280;48812;51.606;-0.114;2023-04-30T08:02:07;101564.78;;;18.31;55.11
56504;BME280;48812;51.606;-0.114;2023-04-30T08:04:39;101561.16;;;18.32;54.94
56504;BME280;48812;51.606;-0.114;2023-04-30T08:07:12;101559.38;;;18.33;55.35
56504;BME280;48812;51.606;-0.114;2023-04-30T08:09:46;101569.13;;;18.34;55.19
56504;BME280;48812;51.606;-0.114;2023-04-30T08:12:18;101561.06;;;18.35;55.03
56504;BME280;48812;51.606;-0.114;2023-04-30T08:14:58;101563.75;;;18.35;55.04
56504;BME280;48812;51.606;-0.114;2023-04-30T08:17:30;101557.47;;;18.36;54.74
56504;BME280;48812;51.606;-0.114;2023-04-30T08:20:03;101567.22;;;18.37;55.33
56504;BME280;48812;51.606;-0.114;2023-04-30T08:22:35;101563.63;;;18.38;54.66
56504;BME280;48812;51.606;-0.114;2023-04-30T08:25:09;101554.69;;;18.39;54.54
56504;BME280;48812;51.606;-0.114;2023-04-30T08:27:41;101556.41;;;18.40;55.02
56504;BME280;48812;51.606;-0.114;2023-04-30T08:30:13;101550.13;;;18.41;55.20
56504;BME280;48812;51.606;-0.114;2023-04-30T08:32:46;101553.63;;;18.43;54.92
56504;BME280;48812;51.606;-0.114;2023-04-30T08:35:19;101558.06;;;18.45;54.90
56504;BME280;48812;51.606;-0.114;2023-04-30T08:37:52;101553.56;;;18.45;54.99
56504;BME280;48812;51.606;-0.114;2023-04-30T08:40:25;101553.50;;;18.47;54.52
56504;BME280;48812;51.606;-0.114;2023-04-30T08:43:14;101552.53;;;18.49;54.84
56504;BME280;48812;51.606;-0.114;2023-04-30T08:45:47;101558.75;;;18.50;54.97
56504;BME280;48812;51.606;-0.114;2023-04-30T08:48:22;101550.66;;;18.51;54.86
56504;BME280;48812;51.606;-0.114;2023-04-30T08:50:55;101547.91;;;18.53;54.86
56504;BME280;48812;51.606;-0.114;2023-04-30T08:53:28;101548.72;;;18.55;54.71
56504;BME280;48812;51.606;-0.114;2023-04-30T08:56:00;101547.81;;;18.56;55.09
56504;BME280;48812;51.606;-0.114;2023-04-30T08:58:32;101556.63;;;18.58;54.69
56504;BME280;48812;51.606;-0.114;2023-04-30T09:01:05;101549.41;;;18.60;55.09
56504;BME280;48812;51.606;-0.114;2023-04-30T09:03:38;101549.41;;;18.60;54.20
56504;BME280;48812;51.606;-0.114;2023-04-30T09:06:14;101551.97;;;18.63;54.57
56504;BME280;48812;51.606;-0.114;2023-04-30T09:08:47;101550.16;;;18.64;54.64
56504;BME280;48812;51.606;-0.114;2023-04-30T09:13:53;101545.56;;;18.67;55.11
56504;BME280;48812;51.606;-0.114;2023-04-30T09:16:27;101544.56;;;18.70;54.56
56504;BME280;48812;51.606;-0.114;2023-04-30T09:19:01;101542.75;;;18.70;55.39
56504;BME280;48812;51.606;-0.114;2023-04-30T09:21:34;101541.75;;;18.73;54.92
56504;BME280;48812;51.606;-0.114;2023-04-30T09:24:08;101534.59;;;18.73;54.56
56504;BME280;48812;51.606;-0.114;2023-04-30T09:26:40;101527.38;;;18.75;54.47
56504;BME280;48812;51.606;-0.114;2023-04-30T09:29:12;101533.53;;;18.77;54.58
56504;BME280;48812;51.606;-0.114;2023-04-30T09:31:45;101527.22;;;18.78;54.48
56504;BME280;48812;51.606;-0.114;2023-04-30T09:34:18;101520.94;;;18.79;54.35
56504;BME280;48812;51.606;-0.114;2023-04-30T09:37:04;101519.97;;;18.82;54.91
56504;BME280;48812;51.606;-0.114;2023-04-30T09:42:19;101515.41;;;18.84;54.29
56504;BME280;48812;51.606;-0.114;2023-04-30T09:44:52;101511.81;;;18.85;54.89
56504;BME280;48812;51.606;-0.114;2023-04-30T09:47:28;101512.63;;;18.87;54.62
56504;BME280;48812;51.606;-0.114;2023-04-30T09:50:03;101517.91;;;18.89;54.11
56504;BME280;48812;51.606;-0.114;2023-04-30T09:52:35;101515.22;;;18.89;54.36
56504;BME280;48812;51.606;-0.114;2023-04-30T09:55:09;101510.66;;;18.91;54.82
56504;BME280;48812;51.606;-0.114;2023-04-30T09:57:41;101513.34;;;18.91;54.53
56504;BME280;48812;51.606;-0.114;2023-04-30T10:00:13;101518.66;;;18.92;54.73
56504;BME280;48812;51.606;-0.114;2023-04-30T10:02:46;101508.78;;;18.93;54.19
56504;BME280;48812;51.606;-0.114;2023-04-30T10:05:18;101506.13;;;18.93;54.43
56504;BME280;48812;51.606;-0.114;2023-04-30T10:07:51;101507.88;;;18.94;55.07
56504;BME280;48812;51.606;-0.114;2023-04-30T10:10:23;101508.66;;;18.96;54.49
56504;BME280;48812;51.606;-0.114;2023-04-30T10:12:59;101505.06;;;18.97;54.57
56504;BME280;48812;51.606;-0.114;2023-04-30T10:15:37;101501.44;;;18.98;54.51
56504;BME280;48812;51.606;-0.114;2023-04-30T10:18:16;101500.50;;;18.99;54.47
56504;BME280;48812;51.606;-0.114;2023-04-30T10:20:50;101501.31;;;19.01;54.32
56504;BME280;48812;51.606;-0.114;2023-04-30T10:23:24;101492.34;;;19.02;54.42
56504;BME280;48812;51.606;-0.114;2023-04-30T10:25:57;101487.84;;;19.03;54.31
56504;BME280;48812;51.606;-0.114;2023-04-30T10:28:30;101485.97;;;19.05;54.63
56504;BME280;48812;51.606;-0.114;2023-04-30T10:31:06;101483.22;;;19.06;54.22
56504;BME280;48812;51.606;-0.114;2023-04-30T10:36:23;101488.50;;;19.08;54.43
56504;BME280;48812;51.606;-0.114;2023-04-30T10:38:57;101484.06;;;19.08;54.37
56504;BME280;48812;51.606;-0.114;2023-04-30T10:41:30;101481.38;;;19.08;54.48
56504;BME280;48812;51.606;-0.114;2023-04-30T10:44:02;101478.69;;;19.08;54.79
56504;BME280;48812;51.606;-0.114;2023-04-30T10:46:36;101475.00;;;19.11;54.79
56504;BME280;48812;51.606;-0.114;2023-04-30T10:49:08;101468.69;;;19.12;54.82
56504;BME280;48812;51.606;-0.114;2023-04-30T10:51:49;101461.53;;;19.12;54.46
56504;BME280;48812;51.606;-0.114;2023-04-30T10:54:30;101470.34;;;19.14;54.45
56504;BME280;48812;51.606;-0.114;2023-04-30T10:59:43;101456.03;;;19.15;54.70
56504;BME280;48812;51.606;-0.114;2023-04-30T11:02:18;101455.09;;;19.16;54.57
56504;BME280;48812;51.606;-0.114;2023-04-30T11:07:45;101451.41;;;19.19;54.45
56504;BME280;48812;51.606;-0.114;2023-04-30T11:10:20;101444.22;;;19.20;54.76
56504;BME280;48812;51.606;-0.114;2023-04-30T11:12:53;101448.66;;;19.21;54.21
56504;BME280;48812;51.606;-0.114;2023-04-30T11:15:26;101434.31;;;19.22;54.66
56504;BME280;48812;51.606;-0.114;2023-04-30T11:18:02;101436.06;;;19.23;54.71
56504;BME280;48812;51.606;-0.114;2023-04-30T11:20:47;101437.81;;;19.24;54.43
56504;BME280;48812;51.606;-0.114;2023-04-30T11:23:23;101432.44;;;19.24;54.40
56504;BME280;48812;51.606;-0.114;2023-04-30T11:26:12;101429.69;;;19.25;54.54
56504;BME280;48812;51.606;-0.114;2023-04-30T11:28:49;101429.69;;;19.25;54.69
56504;BME280;48812;51.606;-0.114;2023-04-30T11:31:21;101420.72;;;19.26;54.64
56504;BME280;48812;51.606;-0.114;2023-04-30T11:33:54;101429.63;;;19.27;54.42
56504;BME280;48812;51.606;-0.114;2023-04-30T11:36:26;101417.09;;;19.27;54.55
56504;BME280;48812;51.606;-0.114;2023-04-30T11:39:01;101416.09;;;19.30;54.22
56504;BME280;48812;51.606;-0.114;2023-04-30T11:41:40;101417.81;;;19.31;54.47
56504;BME280;48812;51.606;-0.114;2023-04-30T11:44:25;101419.56;;;19.32;54.36
56504;BME280;48812;51.606;-0.114;2023-04-30T11:46:57;101419.56;;;19.32;54.58
56504;BME280;48812;51.606;-0.114;2023-04-30T11:49:30;101414.13;;;19.33;54.68
56504;BME280;48812;51.606;-0.114;2023-04-30T11:52:03;101405.16;;;19.34;54.55
56504;BME280;48812;51.606;-0.114;2023-04-30T11:54:36;101408.72;;;19.35;54.54
56504;BME280;48812;51.606;-0.114;2023-04-30T11:57:09;101406.84;;;19.37;54.55
56504;BME280;48812;51.606;-0.114;2023-04-30T11:59:41;101404.16;;;19.37;54.46
56504;BME280;48812;51.606;-0.114;2023-04-30T12:02:15;101400.56;;;19.38;54.61
56504;BME280;48812;51.606;-0.114;2023-04-30T12:04:48;101406.72;;;19.40;54.32
56504;BME280;48812;51.606;-0.114;2023-04-30T12:07:20;101391.50;;;19.41;54.32
56504;BME280;48812;51.606;-0.114;2023-04-30T12:09:56;101401.22;;;19.43;54.03
56504;BME280;48812;51.606;-0.114;2023-04-30T12:12:30;101395.84;;;19.43;54.07
56504;BME280;48812;51.606;-0.114;2023-04-30T12:15:12;101405.63;;;19.44;54.48
56504;BME280;48812;51.606;-0.114;2023-04-30T12:17:44;101399.34;;;19.45;54.23
56504;BME280;48812;51.606;-0.114;2023-04-30T12:20:17;101390.38;;;19.46;53.88
56504;BME280;48812;51.606;-0.114;2023-04-30T12:22:50;101393.91;;;19.47;54.35
56504;BME280;48812;51.606;-0.114;2023-04-30T12:25:23;101397.44;;;19.47;54.37
56504;BME280;48812;51.606;-0.114;2023-04-30T12:27:57;101402.69;;;19.50;53.91
56504;BME280;48812;51.606;-0.114;2023-04-30T12:30:29;101399.06;;;19.51;54.35
56504;BME280;48812;51.606;-0.114;2023-04-30T12:33:02;101396.31;;;19.53;54.28
56504;BME280;48812;51.606;-0.114;2023-04-30T12:35:35;101398.09;;;19.52;54.22
56504;BME280;48812;51.606;-0.114;2023-04-30T12:38:08;101389.91;;;19.56;53.92
56504;BME280;48812;51.606;-0.114;2023-04-30T12:40:45;101392.59;;;19.56;53.87
56504;BME280;48812;51.606;-0.114;2023-04-30T12:43:17;101380.94;;;19.57;53.71
56504;BME280;48812;51.606;-0.114;2023-04-30T12:45:53;101382.69;;;19.58;53.51
56504;BME280;48812;51.606;-0.114;2023-04-30T12:48:26;101376.38;;;19.59;54.27
56504;BME280;48812;51.606;-0.114;2023-04-30T12:51:00;101378.97;;;19.60;53.85
56504;BME280;48812;51.606;-0.114;2023-04-30T12:53:32;101377.16;;;19.61;54.10
56504;BME280;48812;51.606;-0.114;2023-04-30T12:56:14;101373.56;;;19.62;54.12
56504;BME280;48812;51.606;-0.114;2023-04-30T12:58:47;101377.97;;;19.63;53.73
56504;BME280;48812;51.606;-0.114;2023-04-30T13:01:22;101374.41;;;19.62;53.59
56504;BME280;48812;51.606;-0.114;2023-04-30T13:03:55;101370.78;;;19.63;53.96
56504;BME280;48812;51.606;-0.114;2023-04-30T13:06:27;101373.41;;;19.65;53.73
56504;BME280;48812;51.606;-0.114;2023-04-30T13:09:00;101372.47;;;19.66;53.97
56504;BME280;48812;51.606;-0.114;2023-04-30T13:11:32;101372.56;;;19.64;53.52
56504;BME280;48812;51.606;-0.114;2023-04-30T13:14:04;101366.16;;;19.67;53.59
56504;BME280;48812;51.606;-0.114;2023-04-30T13:16:37;101364.25;;;19.69;53.99
56504;BME280;48812;51.606;-0.114;2023-04-30T13:19:11;101366.00;;;19.70;53.67
56504;BME280;48812;51.606;-0.114;2023-04-30T13:21:43;101373.13;;;19.71;53.93
56504;BME280;48812;51.606;-0.114;2023-04-30T13:24:15;101362.25;;;19.74;53.52
56504;BME280;48812;51.606;-0.114;2023-04-30T13:26:49;101356.88;;;19.74;53.69
56504;BME280;48812;51.606;-0.114;2023-04-30T13:29:21;101356.81;;;19.76;53.57
56504;BME280;48812;51.606;-0.114;2023-04-30T13:31:54;101354.94;;;19.78;53.58
56504;BME280;48812;51.606;-0.114;2023-04-30T13:34:27;101350.41;;;19.78;54.02
56504;BME280;48812;51.606;-0.114;2023-04-30T13:36:59;101347.66;;;19.80;53.88
56504;BME280;48812;51.606;-0.114;2023-04-30T13:39:31;101343.97;;;19.82;53.83